Terminal Aerodrome Forecast
Issued by NWS Lake Charles, LA

Home | Current Version | Previous Version | Text Only | Print | Product List | Glossary On
Versions: 1 2 3 4 5 6 7 8 9 10 11 12 13 14 15
000
FTUS44 KLCH 221100
TAFAEX
TAF
KAEX 221140Z 2212/2312 13010KT P6SM FEW040 OVC100
     FM221600 13012G22KT P6SM VCSH SCT035 OVC040
     FM221800 12012KT P6SM FEW020 OVC035
     FM230000 15012G20KT 3SM TSRA FEW015 OVC020CB PROB30 2301/2306
      5SM TSRA OVC025CB=

USA.gov is the U.S. government's official web portal to all federal, state and local government web resources and services.